sensor_id;sensor_type;location;lat;lon;timestamp;pressure;altitude;pressure_sealevel;temperature;humidity
45939;BME280;31650;48.818;9.116;2023-09-07T00:13:34;98376.56;;;13.08;100.00
45939;BME280;31650;48.818;9.116;2023-09-07T00:28:34;98384.75;;;13.08;100.00
45939;BME280;31650;48.818;9.116;2023-09-07T00:43:35;98376.97;;;12.87;100.00
45939;BME280;31650;48.818;9.116;2023-09-07T00:58:35;98376.06;;;12.74;100.00
45939;BME280;31650;48.818;9.116;2023-09-07T01:13:36;98382.09;;;12.58;100.00
45939;BME280;31650;48.818;9.116;2023-09-07T01:28:36;98379.63;;;12.50;100.00
45939;BME280;31650;48.818;9.116;2023-09-07T01:43:37;98367.22;;;12.54;100.00
45939;BME280;31650;48.818;9.116;2023-09-07T01:58:38;98378.69;;;12.38;100.00
45939;BME280;31650;48.818;9.116;2023-09-07T02:13:41;98389.59;;;12.12;100.00
45939;BME280;31650;48.818;9.116;2023-09-07T02:28:41;98385.88;;;12.00;100.00
45939;BME280;31650;48.818;9.116;2023-09-07T02:43:42;98377.16;;;11.78;100.00
45939;BME280;31650;48.818;9.116;2023-09-07T02:58:42;98376.34;;;12.16;100.00
45939;BME280;31650;48.818;9.116;2023-09-07T03:13:42;98369.59;;;11.80;100.00
45939;BME280;31650;48.818;9.116;2023-09-07T03:28:43;98367.66;;;11.56;100.00
45939;BME280;31650;48.818;9.116;2023-09-07T03:43:43;98362.88;;;11.44;100.00
45939;BME280;31650;48.818;9.116;2023-09-07T03:58:44;98365.25;;;11.27;100.00
45939;BME280;31650;48.818;9.116;2023-09-07T04:13:47;98360.63;;;11.35;100.00
45939;BME280;31650;48.818;9.116;2023-09-07T04:28:47;98363.44;;;11.60;100.00
45939;BME280;31650;48.818;9.116;2023-09-07T04:43:47;98360.94;;;11.06;100.00
45939;BME280;31650;48.818;9.116;2023-09-07T04:58:47;98376.66;;;10.91;100.00
45939;BME280;31650;48.818;9.116;2023-09-07T05:13:47;98383.97;;;10.97;100.00
45939;BME280;31650;48.818;9.116;2023-09-07T05:28:48;98386.16;;;11.40;100.00
45939;BME280;31650;48.818;9.116;2023-09-07T05:43:48;98403.59;;;12.16;100.00
45939;BME280;31650;48.818;9.116;2023-09-07T05:58:49;98397.78;;;12.88;100.00
45939;BME280;31650;48.818;9.116;2023-09-07T06:13:49;98402.69;;;13.41;100.00
45939;BME280;31650;48.818;9.116;2023-09-07T06:28:49;98403.84;;;14.00;100.00
45939;BME280;31650;48.818;9.116;2023-09-07T06:43:49;98386.41;;;14.79;100.00
45939;BME280;31650;48.818;9.116;2023-09-07T06:58:50;98365.63;;;15.94;100.00
45939;BME280;31650;48.818;9.116;2023-09-07T07:13:51;98350.34;;;17.60;100.00
45939;BME280;31650;48.818;9.116;2023-09-07T07:28:51;98317.47;;;19.37;100.00
45939;BME280;31650;48.818;9.116;2023-09-07T07:43:51;98288.38;;;21.10;82.15
45939;BME280;31650;48.818;9.116;2023-09-07T07:58:52;98273.41;;;22.26;68.28
45939;BME280;31650;48.818;9.116;2023-09-07T08:13:52;98263.72;;;23.35;63.36
45939;BME280;31650;48.818;9.116;2023-09-07T08:28:52;98268.19;;;23.79;61.82
45939;BME280;31650;48.818;9.116;2023-09-07T08:43:53;98269.69;;;24.61;60.12
45939;BME280;31650;48.818;9.116;2023-09-07T08:58:54;98267.31;;;25.42;56.61
45939;BME280;31650;48.818;9.116;2023-09-07T09:13:54;98258.03;;;26.56;56.74
45939;BME280;31650;48.818;9.116;2023-09-07T09:28:55;98242.94;;;27.86;52.52
45939;BME280;31650;48.818;9.116;2023-09-07T09:43:56;98245.25;;;27.83;50.67
45939;BME280;31650;48.818;9.116;2023-09-07T09:58:56;98231.81;;;28.85;51.11
45939;BME280;31650;48.818;9.116;2023-09-07T10:13:56;98231.63;;;29.37;49.81
45939;BME280;31650;48.818;9.116;2023-09-07T10:29:00;98224.25;;;29.24;49.18
45939;BME280;31650;48.818;9.116;2023-09-07T10:44:01;98198.75;;;29.97;48.47
45939;BME280;31650;48.818;9.116;2023-09-07T10:59:01;98192.59;;;30.83;46.35
45939;BME280;31650;48.818;9.116;2023-09-07T11:14:03;98176.75;;;30.87;46.17
45939;BME280;31650;48.818;9.116;2023-09-07T11:29:04;98174.38;;;31.38;45.08
45939;BME280;31650;48.818;9.116;2023-09-07T11:44:04;98172.63;;;31.33;45.41
45939;BME280;31650;48.818;9.116;2023-09-07T11:59:05;98158.75;;;31.77;42.30
45939;BME280;31650;48.818;9.116;2023-09-07T12:14:05;98151.84;;;32.15;43.37
45939;BME280;31650;48.818;9.116;2023-09-07T12:29:05;98139.75;;;32.43;41.58
45939;BME280;31650;48.818;9.116;2023-09-07T12:44:07;98132.81;;;32.24;41.63
45939;BME280;31650;48.818;9.116;2023-09-07T12:59:07;98127.34;;;29.61;46.94
45939;BME280;31650;48.818;9.116;2023-09-07T13:14:08;98127.34;;;28.25;50.63
45939;BME280;31650;48.818;9.116;2023-09-07T13:29:08;98116.72;;;28.01;50.50
45939;BME280;31650;48.818;9.116;2023-09-07T13:44:08;98102.25;;;27.73;51.13
45939;BME280;31650;48.818;9.116;2023-09-07T13:59:08;98094.69;;;27.99;51.19
45939;BME280;31650;48.818;9.116;2023-09-07T14:14:09;98087.28;;;28.03;51.50
45939;BME280;31650;48.818;9.116;2023-09-07T14:29:10;98084.09;;;28.22;52.78
45939;BME280;31650;48.818;9.116;2023-09-07T14:44:10;98067.63;;;29.69;47.23
45939;BME280;31650;48.818;9.116;2023-09-07T14:59:10;98058.25;;;30.44;45.21
45939;BME280;31650;48.818;9.116;2023-09-07T15:14:10;98058.59;;;30.30;44.64
45939;BME280;31650;48.818;9.116;2023-09-07T15:29:11;98057.38;;;29.73;46.80
45939;BME280;31650;48.818;9.116;2023-09-07T15:44:11;98062.44;;;29.38;46.85
45939;BME280;31650;48.818;9.116;2023-09-07T15:59:11;98061.53;;;28.75;47.05
45939;BME280;31650;48.818;9.116;2023-09-07T16:14:12;98055.91;;;27.80;48.77
45939;BME280;31650;48.818;9.116;2023-09-07T16:29:12;98073.66;;;27.06;50.41
45939;BME280;31650;48.818;9.116;2023-09-07T16:44:12;98080.69;;;26.46;49.88
45939;BME280;31650;48.818;9.116;2023-09-07T16:59:12;98078.69;;;25.62;53.05
45939;BME280;31650;48.818;9.116;2023-09-07T17:14:13;98082.47;;;25.21;52.74
45939;BME280;31650;48.818;9.116;2023-09-07T17:29:13;98097.78;;;24.21;54.55
45939;BME280;31650;48.818;9.116;2023-09-07T17:44:14;98110.97;;;23.64;54.95
45939;BME280;31650;48.818;9.116;2023-09-07T17:59:14;98129.22;;;22.89;55.22
45939;BME280;31650;48.818;9.116;2023-09-07T18:14:14;98148.44;;;22.03;58.35
45939;BME280;31650;48.818;9.116;2023-09-07T18:29:17;98161.59;;;20.93;63.05
45939;BME280;31650;48.818;9.116;2023-09-07T18:44:17;98164.63;;;20.92;64.43
45939;BME280;31650;48.818;9.116;2023-09-07T18:59:18;98182.72;;;20.33;67.87
45939;BME280;31650;48.818;9.116;2023-09-07T19:14:18;98176.38;;;19.61;72.42
45939;BME280;31650;48.818;9.116;2023-09-07T19:29:19;98181.84;;;19.50;78.09
45939;BME280;31650;48.818;9.116;2023-09-07T19:44:20;98186.28;;;19.46;79.68
45939;BME280;31650;48.818;9.116;2023-09-07T19:59:23;98203.69;;;18.84;86.42
45939;BME280;31650;48.818;9.116;2023-09-07T20:14:23;98203.25;;;18.17;96.51
45939;BME280;31650;48.818;9.116;2023-09-07T20:29:23;98200.78;;;18.63;92.30
45939;BME280;31650;48.818;9.116;2023-09-07T20:44:23;98219.22;;;17.56;100.00
45939;BME280;31650;48.818;9.116;2023-09-07T20:59:25;98235.53;;;16.74;100.00
45939;BME280;31650;48.818;9.116;2023-09-07T21:14:27;98261.63;;;16.21;100.00
45939;BME280;31650;48.818;9.116;2023-09-07T21:29:27;98274.22;;;15.88;100.00
45939;BME280;31650;48.818;9.116;2023-09-07T21:44:28;98285.72;;;15.45;100.00
45939;BME280;31650;48.818;9.116;2023-09-07T21:59:29;98287.50;;;15.39;100.00
45939;BME280;31650;48.818;9.116;2023-09-07T22:14:29;98263.47;;;15.70;100.00
45939;BME280;31650;48.818;9.116;2023-09-07T22:29:29;98264.19;;;15.37;100.00
45939;BME280;31650;48.818;9.116;2023-09-07T22:44:30;98268.97;;;14.89;100.00
45939;BME280;31650;48.818;9.116;2023-09-07T22:59:30;98278.88;;;14.55;100.00
45939;BME280;31650;48.818;9.116;2023-09-07T23:14:30;98272.56;;;14.66;100.00
45939;BME280;31650;48.818;9.116;2023-09-07T23:29:50;98274.44;;;14.42;100.00
45939;BME280;31650;48.818;9.116;2023-09-07T23:45:11;98278.84;;;14.19;100.00
